createdAt,value
2023-01-05T00:01:06.174Z,90.33
2023-01-05T00:03:33.325Z,89.89
2023-01-05T00:06:03.766Z,89.72
2023-01-05T00:08:36.375Z,90.05
2023-01-05T00:11:24.003Z,89.58
2023-01-05T00:14:09.243Z,89.87
2023-01-05T00:16:54.488Z,89.70
2023-01-05T00:19:40.176Z,89.59
2023-01-05T00:22:33.555Z,89.61
2023-01-05T00:25:21.474Z,89.47
2023-01-05T00:27:51.347Z,89.40
2023-01-05T00:30:24.184Z,89.39
2023-01-05T00:32:50.927Z,89.74
2023-01-05T00:35:18.159Z,89.48
2023-01-05T00:37:45.596Z,89.78
2023-01-05T00:40:16.240Z,89.83
2023-01-05T00:42:43.255Z,90.13
2023-01-05T00:45:12.245Z,90.14
2023-01-05T00:47:39.036Z,89.96
2023-01-05T00:50:06.823Z,90.05
2023-01-05T00:52:34.846Z,90.10
2023-01-05T00:55:01.283Z,90.35
2023-01-05T00:57:27.839Z,90.45
2023-01-05T00:59:55.487Z,90.37
2023-01-05T01:02:22.107Z,90.44
2023-01-05T01:04:48.628Z,90.43
2023-01-05T01:07:15.003Z,90.59
2023-01-05T01:09:43.178Z,90.83
2023-01-05T01:12:09.818Z,91.29
2023-01-05T01:14:37.089Z,91.01
2023-01-05T01:17:03.577Z,91.35
2023-01-05T01:19:30.252Z,91.21
2023-01-05T01:21:56.685Z,91.49
2023-01-05T01:24:25.886Z,91.42
2023-01-05T01:26:53.270Z,91.52
2023-01-05T01:29:21.088Z,91.54
2023-01-05T01:31:48.901Z,91.71
2023-01-05T01:34:16.200Z,91.43
2023-01-05T01:36:43.428Z,91.29
2023-01-05T01:39:12.245Z,91.54
2023-01-05T01:41:42.035Z,91.18
2023-01-05T01:44:46.588Z,91.17
2023-01-05T01:47:39.943Z,91.54
2023-01-05T01:50:20.147Z,91.44
2023-01-05T01:52:50.143Z,91.07
2023-01-05T01:55:17.917Z,91.41
2023-01-05T01:57:47.410Z,91.53
2023-01-05T02:00:15.102Z,91.53
2023-01-05T02:02:46.073Z,91.73
2023-01-05T02:05:17.111Z,91.30
2023-01-05T02:07:46.105Z,91.36
2023-01-05T02:10:16.625Z,91.40
2023-01-05T02:12:46.046Z,91.02
2023-01-05T02:15:24.205Z,91.29
2023-01-05T02:18:08.971Z,91.11
2023-01-05T02:20:45.836Z,91.23
2023-01-05T02:23:22.607Z,91.30
2023-01-05T02:25:58.786Z,91.50
2023-01-05T02:28:44.101Z,91.50
2023-01-05T02:31:24.908Z,91.80
2023-01-05T02:34:09.399Z,91.60
2023-01-05T02:36:57.652Z,91.96
2023-01-05T02:39:30.815Z,92.23
2023-01-05T02:42:05.288Z,92.41
2023-01-05T02:44:34.146Z,92.67
2023-01-05T02:47:00.629Z,92.70
2023-01-05T02:49:29.547Z,92.89
2023-01-05T02:51:59.990Z,93.14
2023-01-05T02:54:33.937Z,93.32
2023-01-05T02:57:45.202Z,93.25
2023-01-05T03:00:30.588Z,93.51
2023-01-05T03:03:06.851Z,93.64
2023-01-05T03:05:39.067Z,94.01
2023-01-05T03:08:10.397Z,93.85
2023-01-05T03:11:16.586Z,93.96
2023-01-05T03:13:47.730Z,94.23
2023-01-05T03:16:25.165Z,94.25
2023-01-05T03:19:14.433Z,94.45
2023-01-05T03:21:59.943Z,95.10
2023-01-05T03:24:49.909Z,94.88
2023-01-05T03:27:35.697Z,94.64
2023-01-05T03:30:23.841Z,94.72
2023-01-05T03:33:15.664Z,94.96
2023-01-05T03:35:48.053Z,95.09
2023-01-05T03:38:23.235Z,95.15
2023-01-05T03:40:55.865Z,95.29
2023-01-05T03:43:22.882Z,95.50
2023-01-05T03:45:53.817Z,95.51
2023-01-05T03:48:25.648Z,95.26
2023-01-05T03:50:52.193Z,95.29
2023-01-05T03:53:20.430Z,95.50
2023-01-05T03:55:46.907Z,95.55
2023-01-05T03:58:14.044Z,95.50
2023-01-05T04:00:44.166Z,95.76
2023-01-05T04:03:13.205Z,95.76
2023-01-05T04:05:40.169Z,95.92
2023-01-05T04:08:07.847Z,95.95
2023-01-05T04:10:35.936Z,95.75
2023-01-05T04:13:02.335Z,97.07
2023-01-05T04:15:29.192Z,98.46
2023-01-05T04:17:55.969Z,99.04
2023-01-05T04:20:22.451Z,99.61
2023-01-05T04:22:50.012Z,100.00
2023-01-05T04:25:19.349Z,100.00
2023-01-05T04:27:46.625Z,100.00
2023-01-05T04:30:13.386Z,100.00
2023-01-05T04:32:39.822Z,100.00
2023-01-05T04:35:11.528Z,100.00
2023-01-05T04:37:39.793Z,100.00
2023-01-05T04:40:07.179Z,100.00
2023-01-05T04:42:41.469Z,100.00
2023-01-05T04:45:10.308Z,100.00
2023-01-05T04:47:37.351Z,100.00
2023-01-05T04:50:04.520Z,100.00
2023-01-05T04:52:31.579Z,100.00
2023-01-05T04:54:58.477Z,100.00
2023-01-05T04:57:26.949Z,100.00
2023-01-05T04:59:53.448Z,100.00
2023-01-05T05:02:20.075Z,100.00
2023-01-05T05:04:49.381Z,100.00
2023-01-05T05:07:17.100Z,100.00
2023-01-05T05:09:43.567Z,100.00
2023-01-05T05:12:10.850Z,100.00
2023-01-05T05:14:38.532Z,100.00
2023-01-05T05:17:05.600Z,100.00
2023-01-05T05:19:32.223Z,100.00
2023-01-05T05:21:59.283Z,100.00
2023-01-05T05:24:26.601Z,100.00
2023-01-05T05:26:53.101Z,100.00
2023-01-05T05:29:19.511Z,100.00
2023-01-05T05:31:46.089Z,100.00
2023-01-05T05:34:12.593Z,100.00
2023-01-05T05:36:39.014Z,100.00
2023-01-05T05:39:05.448Z,100.00
2023-01-05T05:41:31.842Z,100.00
2023-01-05T05:44:00.834Z,100.00
2023-01-05T05:46:28.215Z,100.00
2023-01-05T05:48:55.958Z,100.00
2023-01-05T05:51:23.265Z,100.00
2023-01-05T05:53:49.851Z,100.00
2023-01-05T05:56:16.624Z,100.00
2023-01-05T05:58:43.135Z,100.00
2023-01-05T06:01:10.386Z,100.00
2023-01-05T06:03:36.855Z,100.00
2023-01-05T06:06:04.131Z,100.00
2023-01-05T06:08:30.772Z,100.00
2023-01-05T06:10:57.769Z,100.00
2023-01-05T06:13:24.728Z,100.00
2023-01-05T06:15:51.180Z,100.00
2023-01-05T06:18:17.871Z,100.00
2023-01-05T06:20:44.332Z,100.00
2023-01-05T06:23:10.714Z,100.00
2023-01-05T06:25:37.307Z,100.00
2023-01-05T06:28:04.025Z,100.00
2023-01-05T06:30:30.530Z,100.00
2023-01-05T06:32:56.959Z,100.00
2023-01-05T06:35:23.464Z,100.00
2023-01-05T06:37:49.853Z,100.00
2023-01-05T06:40:16.321Z,100.00
2023-01-05T06:42:43.409Z,100.00
2023-01-05T06:45:13.331Z,100.00
2023-01-05T06:47:40.228Z,100.00
2023-01-05T06:50:07.741Z,100.00
2023-01-05T06:52:36.747Z,100.00
2023-01-05T06:55:04.469Z,100.00
2023-01-05T06:57:30.923Z,100.00
2023-01-05T06:59:57.308Z,100.00
2023-01-05T07:02:23.741Z,100.00
2023-01-05T07:04:50.131Z,100.00
2023-01-05T07:07:16.560Z,100.00
2023-01-05T07:09:45.222Z,100.00
2023-01-05T07:12:11.599Z,100.00
2023-01-05T07:14:38.209Z,100.00
2023-01-05T07:17:05.159Z,100.00
2023-01-05T07:19:31.683Z,100.00
2023-01-05T07:21:58.846Z,100.00
2023-01-05T07:24:25.453Z,100.00
2023-01-05T07:26:51.815Z,100.00
2023-01-05T07:29:18.867Z,100.00
2023-01-05T07:31:47.410Z,100.00
2023-01-05T07:34:15.020Z,100.00
2023-01-05T07:36:41.397Z,100.00
2023-01-05T07:39:07.803Z,100.00
2023-01-05T07:41:34.221Z,100.00
2023-01-05T07:44:00.627Z,100.00
2023-01-05T07:46:27.021Z,100.00
2023-01-05T07:48:53.412Z,100.00
2023-01-05T07:51:20.848Z,100.00
2023-01-05T07:53:48.009Z,100.00
2023-01-05T07:56:14.775Z,100.00
2023-01-05T07:58:41.666Z,100.00
2023-01-05T08:01:10.943Z,100.00
2023-01-05T08:03:37.586Z,100.00
2023-01-05T08:06:06.847Z,100.00
2023-01-05T08:08:33.352Z,100.00
2023-01-05T08:11:00.118Z,100.00
2023-01-05T08:13:58.654Z,100.00
2023-01-05T08:16:25.581Z,100.00
2023-01-05T08:18:52.197Z,100.00
2023-01-05T08:21:18.675Z,100.00
2023-01-05T08:23:45.791Z,100.00
2023-01-05T08:26:18.907Z,100.00
2023-01-05T08:28:45.646Z,100.00
2023-01-05T08:31:24.350Z,100.00
2023-01-05T08:33:50.839Z,100.00
2023-01-05T08:36:19.769Z,100.00
2023-01-05T08:38:48.230Z,100.00
2023-01-05T08:41:20.605Z,100.00
2023-01-05T08:43:54.003Z,100.00
2023-01-05T08:46:21.587Z,100.00
2023-01-05T08:48:54.692Z,100.00
2023-01-05T08:51:21.805Z,100.00
2023-01-05T08:53:48.804Z,100.00
2023-01-05T08:56:15.442Z,100.00
2023-01-05T08:58:42.641Z,100.00
2023-01-05T09:01:13.200Z,100.00
2023-01-05T09:03:39.963Z,100.00
2023-01-05T09:06:09.249Z,100.00
2023-01-05T09:08:36.120Z,100.00
2023-01-05T09:11:22.790Z,100.00
2023-01-05T09:13:52.083Z,100.00
2023-01-05T09:19:07.547Z,100.00
2023-01-05T09:21:34.349Z,100.00
2023-01-05T09:24:00.797Z,100.00
2023-01-05T09:26:27.345Z,100.00
2023-01-05T09:28:54.774Z,100.00
2023-01-05T09:31:22.772Z,100.00
2023-01-05T09:33:49.405Z,100.00
2023-01-05T09:36:17.858Z,100.00
2023-01-05T09:38:52.155Z,100.00
2023-01-05T09:41:44.868Z,100.00
2023-01-05T09:44:30.309Z,100.00
2023-01-05T09:47:05.357Z,100.00
2023-01-05T09:49:33.865Z,100.00
2023-01-05T09:52:02.841Z,100.00
2023-01-05T09:54:33.088Z,100.00
2023-01-05T09:57:09.423Z,100.00
2023-01-05T09:59:40.706Z,100.00
2023-01-05T10:02:19.389Z,100.00
2023-01-05T10:04:47.633Z,100.00
2023-01-05T10:07:29.941Z,100.00
2023-01-05T10:10:02.032Z,100.00
2023-01-05T10:13:02.866Z,100.00
2023-01-05T10:15:52.218Z,100.00
2023-01-05T10:18:23.898Z,100.00
2023-01-05T10:21:03.559Z,100.00
2023-01-05T10:23:51.862Z,100.00
2023-01-05T10:26:58.129Z,100.00
2023-01-05T10:29:47.299Z,100.00
2023-01-05T10:32:28.139Z,100.00
2023-01-05T10:34:59.294Z,100.00
2023-01-05T10:37:43.648Z,100.00
2023-01-05T10:40:37.858Z,100.00
2023-01-05T10:43:39.060Z,100.00
2023-01-05T10:48:56.507Z,100.00
2023-01-05T10:51:23.088Z,100.00
2023-01-05T10:53:49.489Z,100.00
2023-01-05T10:56:23.522Z,100.00
2023-01-05T10:59:07.637Z,100.00
2023-01-05T11:01:36.780Z,100.00
2023-01-05T11:07:07.002Z,100.00
2023-01-05T11:09:39.286Z,100.00
2023-01-05T11:12:06.062Z,100.00
2023-01-05T11:14:44.248Z,100.00
2023-01-05T11:17:17.646Z,100.00
2023-01-05T11:19:45.756Z,100.00
2023-01-05T11:22:35.522Z,100.00
2023-01-05T11:25:27.246Z,99.77
2023-01-05T11:28:16.771Z,99.17
2023-01-05T11:31:04.909Z,98.56
2023-01-05T11:33:35.288Z,98.51
2023-01-05T11:36:04.930Z,98.43
2023-01-05T11:38:32.198Z,97.94
2023-01-05T11:41:00.986Z,97.50
2023-01-05T11:43:32.298Z,97.05
2023-01-05T11:46:02.268Z,97.36
2023-01-05T11:48:32.290Z,97.12
2023-01-05T11:50:59.389Z,96.99
2023-01-05T11:53:31.793Z,95.86
2023-01-05T11:56:05.461Z,95.44
2023-01-05T11:58:46.243Z,95.06
2023-01-05T12:01:46.596Z,95.48
2023-01-05T12:04:25.911Z,96.07
2023-01-05T12:07:08.764Z,95.02
2023-01-05T12:09:38.172Z,94.64
2023-01-05T12:12:34.921Z,94.08
2023-01-05T12:15:13.993Z,93.53
2023-01-05T12:17:59.273Z,93.83
2023-01-05T12:20:40.625Z,93.87
2023-01-05T12:23:32.272Z,92.77
2023-01-05T12:26:10.682Z,92.76
2023-01-05T12:35:06.357Z,91.69
2023-01-05T12:37:44.191Z,91.94
2023-01-05T12:40:29.642Z,92.03
2023-01-05T12:42:55.972Z,91.58
2023-01-05T12:45:44.241Z,91.91
2023-01-05T12:48:19.060Z,91.21
2023-01-05T12:51:04.815Z,90.98
2023-01-05T12:53:40.519Z,91.22
2023-01-05T12:56:18.181Z,89.27
2023-01-05T12:58:54.397Z,87.88
2023-01-05T13:01:29.623Z,87.36
2023-01-05T13:04:10.249Z,86.94
2023-01-05T13:06:42.506Z,85.92
2023-01-05T13:09:30.919Z,87.15
2023-01-05T13:12:07.403Z,86.65
2023-01-05T13:14:36.644Z,86.31
2023-01-05T13:17:33.419Z,85.74
2023-01-05T13:20:16.139Z,85.96
2023-01-05T13:22:44.753Z,86.31
2023-01-05T13:25:21.076Z,86.61
2023-01-05T13:27:47.642Z,87.28
2023-01-05T13:30:26.023Z,86.01
2023-01-05T13:33:18.569Z,84.75
2023-01-05T13:35:48.320Z,83.35
2023-01-05T13:38:38.748Z,80.49
2023-01-05T13:41:21.632Z,81.01
2023-01-05T13:44:06.581Z,80.72
2023-01-05T13:46:57.137Z,77.60
2023-01-05T13:50:19.595Z,75.98
2023-01-05T13:53:09.234Z,75.08
2023-01-05T13:55:45.268Z,76.28
2023-01-05T14:01:15.518Z,77.05
2023-01-05T14:03:50.409Z,77.31
2023-01-05T14:06:27.368Z,78.14
2023-01-05T14:11:36.066Z,78.57
2023-01-05T14:14:25.152Z,79.05
2023-01-05T14:16:52.955Z,79.67
2023-01-05T14:19:37.616Z,80.40
2023-01-05T14:22:19.253Z,81.30
2023-01-05T14:24:48.973Z,81.46
2023-01-05T14:27:18.305Z,81.50
2023-01-05T14:29:44.983Z,82.41
2023-01-05T14:32:22.411Z,82.97
2023-01-05T14:34:52.831Z,82.88
2023-01-05T14:37:32.733Z,83.02
2023-01-05T14:40:04.358Z,83.29
2023-01-05T14:42:41.165Z,83.63
2023-01-05T14:45:19.968Z,84.07
2023-01-05T14:47:48.816Z,84.05
2023-01-05T14:50:31.212Z,84.22
2023-01-05T14:52:59.561Z,84.23
2023-01-05T14:55:55.072Z,84.51
2023-01-05T14:58:33.459Z,84.22
2023-01-05T15:01:05.117Z,85.15
2023-01-05T15:04:03.827Z,85.26
2023-01-05T15:06:53.853Z,85.84
2023-01-05T15:09:41.307Z,85.70
2023-01-05T15:12:23.279Z,85.88
2023-01-05T15:15:20.244Z,85.87
2023-01-05T15:18:01.826Z,85.68
2023-01-05T15:20:44.375Z,85.23
2023-01-05T15:23:23.035Z,85.26
2023-01-05T15:26:03.151Z,85.33
2023-01-05T15:28:52.760Z,85.62
2023-01-05T15:31:53.228Z,85.99
2023-01-05T15:34:27.031Z,86.50
2023-01-05T15:37:02.563Z,86.54
2023-01-05T15:39:37.557Z,87.01
2023-01-05T15:42:08.997Z,86.61
2023-01-05T15:44:43.001Z,86.97
2023-01-05T15:47:10.853Z,87.29
2023-01-05T15:49:39.830Z,87.98
2023-01-05T15:52:17.451Z,87.74
2023-01-05T15:54:57.191Z,88.18
2023-01-05T15:57:23.569Z,88.83
2023-01-05T15:59:51.802Z,89.13
2023-01-05T16:02:25.889Z,89.48
2023-01-05T16:05:20.504Z,89.83
2023-01-05T16:07:54.228Z,90.16
2023-01-05T16:10:38.055Z,90.53
2023-01-05T16:13:33.806Z,90.89
2023-01-05T16:16:03.085Z,91.56
2023-01-05T16:18:35.143Z,91.81
2023-01-05T16:21:17.011Z,92.12
2023-01-05T16:23:53.136Z,92.35
2023-01-05T16:26:19.917Z,92.54
2023-01-05T16:28:46.642Z,92.67
2023-01-05T16:31:15.786Z,93.43
2023-01-05T16:33:42.315Z,93.85
2023-01-05T16:36:18.288Z,94.66
2023-01-05T16:38:45.072Z,95.20
2023-01-05T16:41:19.694Z,96.00
2023-01-05T16:43:52.031Z,97.39
2023-01-05T16:46:25.283Z,97.75
2023-01-05T16:48:55.037Z,98.55
2023-01-05T16:51:22.624Z,98.80
2023-01-05T16:53:53.392Z,99.24
2023-01-05T16:56:52.332Z,99.54
2023-01-05T16:59:50.003Z,99.83
2023-01-05T17:02:54.202Z,100.00
2023-01-05T17:05:26.976Z,100.00
2023-01-05T17:08:05.465Z,100.00
2023-01-05T17:10:32.548Z,100.00
2023-01-05T17:13:08.251Z,100.00
2023-01-05T17:15:36.148Z,100.00
2023-01-05T17:20:55.162Z,100.00
2023-01-05T17:23:25.248Z,100.00
2023-01-05T17:28:24.873Z,100.00
2023-01-05T17:30:52.870Z,100.00
2023-01-05T17:33:19.800Z,100.00
2023-01-05T17:38:15.099Z,100.00
2023-01-05T17:40:42.271Z,100.00
2023-01-05T17:43:09.112Z,100.00
2023-01-05T17:45:39.660Z,100.00
2023-01-05T17:48:06.408Z,100.00
2023-01-05T17:50:33.293Z,100.00
2023-01-05T17:53:01.562Z,100.00
2023-01-05T17:55:29.331Z,100.00
2023-01-05T17:57:57.670Z,100.00
2023-01-05T18:00:27.638Z,100.00
2023-01-05T18:02:54.899Z,100.00
2023-01-05T18:05:22.202Z,100.00
2023-01-05T18:07:48.769Z,100.00
2023-01-05T18:10:19.342Z,100.00
2023-01-05T18:12:45.805Z,100.00
2023-01-05T18:15:14.146Z,100.00
2023-01-05T18:17:40.850Z,100.00
2023-01-05T18:20:08.043Z,100.00
2023-01-05T18:22:34.462Z,100.00
2023-01-05T18:25:00.937Z,100.00
2023-01-05T18:27:27.355Z,100.00
2023-01-05T18:29:53.876Z,100.00
2023-01-05T18:32:20.262Z,100.00
2023-01-05T18:34:46.684Z,100.00
2023-01-05T18:37:21.443Z,100.00
2023-01-05T18:39:48.290Z,100.00
2023-01-05T18:42:14.707Z,100.00
2023-01-05T18:44:41.389Z,100.00
2023-01-05T18:47:08.752Z,100.00
2023-01-05T18:49:35.147Z,100.00
2023-01-05T18:52:01.506Z,100.00
2023-01-05T18:54:28.324Z,100.00
2023-01-05T18:56:54.703Z,100.00
2023-01-05T18:59:21.324Z,100.00
2023-01-05T19:01:47.730Z,100.00
2023-01-05T19:04:15.689Z,100.00
2023-01-05T19:06:42.523Z,100.00
2023-01-05T19:09:11.287Z,100.00
2023-01-05T19:11:39.374Z,100.00
2023-01-05T19:14:06.178Z,100.00
2023-01-05T19:16:35.391Z,100.00
2023-01-05T19:19:08.174Z,100.00
2023-01-05T19:21:37.955Z,100.00
2023-01-05T19:24:08.013Z,100.00
2023-01-05T19:26:36.120Z,100.00
2023-01-05T19:29:06.052Z,100.00
2023-01-05T19:31:32.926Z,100.00
2023-01-05T19:33:59.361Z,100.00
2023-01-05T19:36:34.706Z,100.00
2023-01-05T19:39:13.857Z,100.00
2023-01-05T19:41:43.775Z,100.00
2023-01-05T19:44:16.147Z,100.00
2023-01-05T19:46:43.839Z,100.00
2023-01-05T19:49:17.497Z,100.00
2023-01-05T19:51:45.179Z,100.00
2023-01-05T19:54:12.894Z,100.00
2023-01-05T19:56:40.282Z,100.00
2023-01-05T19:59:13.093Z,100.00
2023-01-05T20:01:39.513Z,100.00
2023-01-05T20:04:06.363Z,100.00
2023-01-05T20:06:37.896Z,100.00
2023-01-05T20:09:09.249Z,100.00
2023-01-05T20:11:45.607Z,100.00
2023-01-05T20:14:11.999Z,100.00
2023-01-05T20:16:40.002Z,100.00
2023-01-05T20:19:06.931Z,100.00
2023-01-05T20:21:33.796Z,100.00
2023-01-05T20:24:01.998Z,100.00
2023-01-05T20:26:30.559Z,100.00
2023-01-05T20:29:00.554Z,100.00
2023-01-05T20:31:36.276Z,100.00
2023-01-05T20:34:07.861Z,100.00
2023-01-05T20:36:34.811Z,100.00
2023-01-05T20:39:05.876Z,100.00
2023-01-05T20:41:36.812Z,100.00
2023-01-05T20:44:04.105Z,100.00
2023-01-05T20:46:35.433Z,100.00
2023-01-05T20:49:02.274Z,100.00
2023-01-05T20:51:29.017Z,100.00
2023-01-05T20:53:57.991Z,100.00
2023-01-05T20:56:26.887Z,100.00
2023-01-05T20:58:54.638Z,100.00
2023-01-05T21:01:22.203Z,100.00
2023-01-05T21:03:50.203Z,100.00
2023-01-05T21:06:18.973Z,100.00
2023-01-05T21:08:48.589Z,100.00
2023-01-05T21:11:17.333Z,100.00
2023-01-05T21:13:49.463Z,100.00
2023-01-05T21:16:24.671Z,100.00
2023-01-05T21:18:51.241Z,100.00
2023-01-05T21:21:19.364Z,100.00
2023-01-05T21:23:47.527Z,100.00
2023-01-05T21:26:15.551Z,100.00
2023-01-05T21:28:43.235Z,100.00
2023-01-05T21:31:12.687Z,100.00
2023-01-05T21:33:40.301Z,100.00
2023-01-05T21:36:07.669Z,100.00
2023-01-05T21:39:01.849Z,100.00
2023-01-05T21:41:41.141Z,100.00
2023-01-05T21:44:10.589Z,100.00
2023-01-05T21:46:38.349Z,100.00
2023-01-05T21:49:05.189Z,100.00
2023-01-05T21:51:50.236Z,100.00
2023-01-05T21:54:36.135Z,100.00
2023-01-05T21:57:03.158Z,100.00
2023-01-05T21:59:29.928Z,100.00
2023-01-05T22:01:56.490Z,100.00
2023-01-05T22:04:23.088Z,100.00
2023-01-05T22:06:50.406Z,100.00
2023-01-05T22:09:16.930Z,100.00
2023-01-05T22:11:43.553Z,100.00
2023-01-05T22:14:10.142Z,100.00
2023-01-05T22:16:37.162Z,100.00
2023-01-05T22:19:03.571Z,100.00
2023-01-05T22:21:30.937Z,100.00
2023-01-05T22:23:58.181Z,100.00
2023-01-05T22:26:24.679Z,100.00
2023-01-05T22:28:52.107Z,100.00
2023-01-05T22:31:24.842Z,100.00
2023-01-05T22:33:53.648Z,100.00
2023-01-05T22:36:21.635Z,100.00
2023-01-05T22:38:49.520Z,100.00
2023-01-05T22:41:19.622Z,100.00
2023-01-05T22:43:46.581Z,100.00
2023-01-05T22:46:19.170Z,100.00
2023-01-05T22:48:47.029Z,100.00
2023-01-05T22:51:22.620Z,100.00
2023-01-05T22:53:49.852Z,100.00
2023-01-05T22:56:17.905Z,100.00
2023-01-05T22:58:44.623Z,100.00
2023-01-05T23:01:12.370Z,100.00
2023-01-05T23:03:40.182Z,100.00
2023-01-05T23:06:07.051Z,100.00
2023-01-05T23:08:35.299Z,100.00
2023-01-05T23:11:04.655Z,100.00
2023-01-05T23:13:31.214Z,100.00
2023-01-05T23:15:57.981Z,100.00
2023-01-05T23:18:25.566Z,100.00
2023-01-05T23:20:56.995Z,100.00
2023-01-05T23:23:23.946Z,100.00
2023-01-05T23:25:51.751Z,100.00
2023-01-05T23:28:19.785Z,100.00
2023-01-05T23:30:47.979Z,100.00
2023-01-05T23:33:16.226Z,100.00
2023-01-05T23:35:43.484Z,100.00
2023-01-05T23:38:10.630Z,100.00
2023-01-05T23:40:45.132Z,100.00
2023-01-05T23:43:13.245Z,100.00
2023-01-05T23:45:42.856Z,100.00
2023-01-05T23:48:10.268Z,100.00
2023-01-05T23:50:37.085Z,100.00
2023-01-05T23:53:03.906Z,100.00
2023-01-05T23:55:30.277Z,100.00
2023-01-05T23:57:58.643Z,100.00
